sensor_id;sensor_type;location;lat;lon;timestamp;pressure;altitude;pressure_sealevel;temperature;humidity
51053;BME280;37093;37.716;-122.060;2023-03-01T00:01:21;99244.52;;;10.65;63.40
51053;BME280;37093;37.716;-122.060;2023-03-01T00:03:50;99235.96;;;10.36;64.38
51053;BME280;37093;37.716;-122.060;2023-03-01T00:06:19;99240.19;;;10.26;64.18
51053;BME280;37093;37.716;-122.060;2023-03-01T00:08:48;99236.96;;;9.98;64.77
51053;BME280;37093;37.716;-122.060;2023-03-01T00:11:19;99233.30;;;10.47;66.17
51053;BME280;37093;37.716;-122.060;2023-03-01T00:13:50;99230.59;;;10.69;66.59
51053;BME280;37093;37.716;-122.060;2023-03-01T00:16:21;99225.99;;;9.91;65.07
51053;BME280;37093;37.716;-122.060;2023-03-01T00:18:49;99219.88;;;9.87;68.40
51053;BME280;37093;37.716;-122.060;2023-03-01T00:21:20;99219.91;;;9.75;67.23
51053;BME280;37093;37.716;-122.060;2023-03-01T00:23:48;99215.97;;;9.86;69.83
51053;BME280;37093;37.716;-122.060;2023-03-01T00:26:18;99219.71;;;9.34;67.42
51053;BME280;37093;37.716;-122.060;2023-03-01T00:28:47;99220.99;;;9.97;65.12
51053;BME280;37093;37.716;-122.060;2023-03-01T00:31:19;99223.29;;;10.36;64.81
51053;BME280;37093;37.716;-122.060;2023-03-01T00:33:48;99214.83;;;9.60;68.19
51053;BME280;37093;37.716;-122.060;2023-03-01T00:36:16;99212.62;;;9.44;69.37
51053;BME280;37093;37.716;-122.060;2023-03-01T00:38:46;99212.02;;;9.56;68.95
51053;BME280;37093;37.716;-122.060;2023-03-01T00:41:16;99211.38;;;9.71;68.33
51053;BME280;37093;37.716;-122.060;2023-03-01T00:43:45;99208.92;;;9.81;67.10
51053;BME280;37093;37.716;-122.060;2023-03-01T00:46:15;99210.15;;;9.79;67.07
51053;BME280;37093;37.716;-122.060;2023-03-01T00:48:44;99207.42;;;9.36;68.72
51053;BME280;37093;37.716;-122.060;2023-03-01T00:51:14;99210.62;;;9.69;69.08
51053;BME280;37093;37.716;-122.060;2023-03-01T00:53:43;99215.56;;;9.40;70.44
51053;BME280;37093;37.716;-122.060;2023-03-01T00:56:13;99207.42;;;9.14;69.67
51053;BME280;37093;37.716;-122.060;2023-03-01T00:58:42;99206.41;;;9.30;70.52
51053;BME280;37093;37.716;-122.060;2023-03-01T01:01:14;99207.92;;;9.55;68.18
51053;BME280;37093;37.716;-122.060;2023-03-01T01:03:43;99207.61;;;10.11;65.60
51053;BME280;37093;37.716;-122.060;2023-03-01T01:06:16;99201.77;;;9.94;66.18
51053;BME280;37093;37.716;-122.060;2023-03-01T01:08:44;99195.63;;;10.28;65.91
51053;BME280;37093;37.716;-122.060;2023-03-01T01:11:13;99199.25;;;9.51;66.90
51053;BME280;37093;37.716;-122.060;2023-03-01T01:13:43;99198.67;;;9.68;67.75
51053;BME280;37093;37.716;-122.060;2023-03-01T01:16:12;99206.80;;;9.48;67.90
51053;BME280;37093;37.716;-122.060;2023-03-01T01:18:41;99208.26;;;9.16;69.69
51053;BME280;37093;37.716;-122.060;2023-03-01T01:21:11;99216.77;;;9.28;69.86
51053;BME280;37093;37.716;-122.060;2023-03-01T01:23:41;99215.47;;;8.99;69.48
51053;BME280;37093;37.716;-122.060;2023-03-01T01:26:13;99216.10;;;9.13;69.72
51053;BME280;37093;37.716;-122.060;2023-03-01T01:28:42;99221.62;;;9.08;69.05
51053;BME280;37093;37.716;-122.060;2023-03-01T01:31:10;99225.53;;;8.92;69.73
51053;BME280;37093;37.716;-122.060;2023-03-01T01:33:39;99226.17;;;9.00;69.67
51053;BME280;37093;37.716;-122.060;2023-03-01T01:36:08;99228.06;;;9.06;69.18
51053;BME280;37093;37.716;-122.060;2023-03-01T01:38:37;99225.33;;;8.72;69.14
51053;BME280;37093;37.716;-122.060;2023-03-01T01:41:08;99225.31;;;9.06;68.66
51053;BME280;37093;37.716;-122.060;2023-03-01T01:43:40;99220.99;;;9.50;66.51
51053;BME280;37093;37.716;-122.060;2023-03-01T01:46:18;99215.48;;;8.95;65.77
51053;BME280;37093;37.716;-122.060;2023-03-01T01:48:54;99214.81;;;9.75;65.31
51053;BME280;37093;37.716;-122.060;2023-03-01T01:51:25;99202.21;;;9.83;63.75
51053;BME280;37093;37.716;-122.060;2023-03-01T01:53:59;99199.61;;;10.39;61.43
51053;BME280;37093;37.716;-122.060;2023-03-01T01:56:29;99197.36;;;10.24;63.18
51053;BME280;37093;37.716;-122.060;2023-03-01T01:58:58;99196.24;;;10.79;62.60
51053;BME280;37093;37.716;-122.060;2023-03-01T02:01:26;99192.88;;;10.15;63.18
51053;BME280;37093;37.716;-122.060;2023-03-01T02:03:56;99188.50;;;10.17;62.13
51053;BME280;37093;37.716;-122.060;2023-03-01T02:06:29;99184.96;;;10.44;61.51
51053;BME280;37093;37.716;-122.060;2023-03-01T02:09:03;99186.01;;;10.38;60.52
51053;BME280;37093;37.716;-122.060;2023-03-01T02:11:33;99187.35;;;10.94;58.95
51053;BME280;37093;37.716;-122.060;2023-03-01T02:14:01;99187.41;;;11.07;59.24
51053;BME280;37093;37.716;-122.060;2023-03-01T02:16:30;99186.00;;;11.07;58.81
51053;BME280;37093;37.716;-122.060;2023-03-01T02:18:59;99193.11;;;10.36;60.50
51053;BME280;37093;37.716;-122.060;2023-03-01T02:21:37;99189.18;;;9.65;62.64
51053;BME280;37093;37.716;-122.060;2023-03-01T02:24:15;99187.28;;;10.02;63.08
51053;BME280;37093;37.716;-122.060;2023-03-01T02:26:50;99176.69;;;10.46;63.35
51053;BME280;37093;37.716;-122.060;2023-03-01T02:29:20;99167.95;;;10.32;61.88
51053;BME280;37093;37.716;-122.060;2023-03-01T02:31:50;99160.09;;;10.23;60.04
51053;BME280;37093;37.716;-122.060;2023-03-01T02:34:23;99169.51;;;10.44;61.27
51053;BME280;37093;37.716;-122.060;2023-03-01T02:36:56;99164.19;;;10.54;60.56
51053;BME280;37093;37.716;-122.060;2023-03-01T02:39:28;99161.68;;;10.62;60.52
51053;BME280;37093;37.716;-122.060;2023-03-01T02:41:59;99168.25;;;10.31;60.68
51053;BME280;37093;37.716;-122.060;2023-03-01T02:44:27;99173.43;;;10.65;60.53
51053;BME280;37093;37.716;-122.060;2023-03-01T02:46:57;99173.56;;;10.71;59.25
51053;BME280;37093;37.716;-122.060;2023-03-01T02:49:32;99163.74;;;10.28;58.01
51053;BME280;37093;37.716;-122.060;2023-03-01T02:52:41;99160.66;;;10.87;57.95
51053;BME280;37093;37.716;-122.060;2023-03-01T02:55:15;99159.04;;;10.79;58.05
51053;BME280;37093;37.716;-122.060;2023-03-01T02:57:46;99159.48;;;10.83;57.11
51053;BME280;37093;37.716;-122.060;2023-03-01T03:00:20;99149.95;;;10.79;57.14
51053;BME280;37093;37.716;-122.060;2023-03-01T03:02:50;99150.55;;;11.01;57.00
51053;BME280;37093;37.716;-122.060;2023-03-01T03:05:21;99148.08;;;11.13;57.34
51053;BME280;37093;37.716;-122.060;2023-03-01T03:07:51;99145.56;;;11.51;55.91
51053;BME280;37093;37.716;-122.060;2023-03-01T03:10:22;99143.55;;;11.21;56.18
51053;BME280;37093;37.716;-122.060;2023-03-01T03:12:51;99141.92;;;10.77;57.89
51053;BME280;37093;37.716;-122.060;2023-03-01T03:15:20;99138.67;;;11.16;56.26
51053;BME280;37093;37.716;-122.060;2023-03-01T03:17:50;99132.65;;;10.94;55.48
51053;BME280;37093;37.716;-122.060;2023-03-01T03:20:20;99126.86;;;11.60;55.78
51053;BME280;37093;37.716;-122.060;2023-03-01T03:22:52;99142.38;;;10.94;55.60
51053;BME280;37093;37.716;-122.060;2023-03-01T03:25:21;99145.38;;;10.23;57.96
51053;BME280;37093;37.716;-122.060;2023-03-01T03:27:51;99149.87;;;9.83;58.93
51053;BME280;37093;37.716;-122.060;2023-03-01T03:30:20;99152.89;;;8.27;61.36
51053;BME280;37093;37.716;-122.060;2023-03-01T03:32:49;99154.62;;;8.45;61.63
51053;BME280;37093;37.716;-122.060;2023-03-01T03:35:18;99158.33;;;8.70;61.97
51053;BME280;37093;37.716;-122.060;2023-03-01T03:37:47;99161.92;;;8.56;62.53
51053;BME280;37093;37.716;-122.060;2023-03-01T03:40:16;99163.42;;;8.58;60.55
51053;BME280;37093;37.716;-122.060;2023-03-01T03:42:44;99162.58;;;8.56;61.18
51053;BME280;37093;37.716;-122.060;2023-03-01T03:45:13;99156.03;;;8.61;60.79
51053;BME280;37093;37.716;-122.060;2023-03-01T03:47:42;99158.27;;;8.71;58.46
51053;BME280;37093;37.716;-122.060;2023-03-01T03:50:13;99163.35;;;8.67;58.30
51053;BME280;37093;37.716;-122.060;2023-03-01T03:52:42;99166.22;;;9.23;58.40
51053;BME280;37093;37.716;-122.060;2023-03-01T03:55:12;99168.22;;;9.37;56.08
51053;BME280;37093;37.716;-122.060;2023-03-01T03:57:42;99176.70;;;9.47;55.68
51053;BME280;37093;37.716;-122.060;2023-03-01T04:00:12;99173.21;;;9.99;54.12
51053;BME280;37093;37.716;-122.060;2023-03-01T04:02:42;99178.88;;;10.34;53.69
51053;BME280;37093;37.716;-122.060;2023-03-01T04:05:12;99182.09;;;10.63;52.89
51053;BME280;37093;37.716;-122.060;2023-03-01T04:07:42;99186.56;;;10.54;52.95
51053;BME280;37093;37.716;-122.060;2023-03-01T04:10:14;99197.13;;;10.03;53.39
51053;BME280;37093;37.716;-122.060;2023-03-01T04:12:42;99200.82;;;9.97;53.69
51053;BME280;37093;37.716;-122.060;2023-03-01T04:15:11;99205.12;;;9.66;53.55
51053;BME280;37093;37.716;-122.060;2023-03-01T04:17:40;99207.57;;;8.84;56.14
51053;BME280;37093;37.716;-122.060;2023-03-01T04:20:11;99207.15;;;8.75;56.48
51053;BME280;37093;37.716;-122.060;2023-03-01T04:22:40;99206.21;;;8.85;57.03
51053;BME280;37093;37.716;-122.060;2023-03-01T04:25:08;99195.98;;;8.27;58.53
51053;BME280;37093;37.716;-122.060;2023-03-01T04:27:37;99186.54;;;8.32;60.12
51053;BME280;37093;37.716;-122.060;2023-03-01T04:30:07;99180.36;;;8.12;58.14
51053;BME280;37093;37.716;-122.060;2023-03-01T04:32:35;99182.06;;;8.58;57.66
51053;BME280;37093;37.716;-122.060;2023-03-01T04:35:04;99179.47;;;8.90;58.60
51053;BME280;37093;37.716;-122.060;2023-03-01T04:37:33;99180.34;;;8.86;56.62
51053;BME280;37093;37.716;-122.060;2023-03-01T04:40:02;99178.02;;;9.41;56.42
51053;BME280;37093;37.716;-122.060;2023-03-01T04:42:31;99176.72;;;10.04;54.04
51053;BME280;37093;37.716;-122.060;2023-03-01T04:44:59;99183.81;;;9.92;53.02
51053;BME280;37093;37.716;-122.060;2023-03-01T04:47:28;99186.20;;;10.08;52.79
51053;BME280;37093;37.716;-122.060;2023-03-01T04:49:57;99195.48;;;10.14;52.58
51053;BME280;37093;37.716;-122.060;2023-03-01T04:52:25;99202.12;;;10.34;52.55
51053;BME280;37093;37.716;-122.060;2023-03-01T04:54:54;99208.16;;;10.85;51.44
51053;BME280;37093;37.716;-122.060;2023-03-01T04:57:22;99207.09;;;10.39;51.59
51053;BME280;37093;37.716;-122.060;2023-03-01T04:59:51;99211.75;;;9.56;54.88
51053;BME280;37093;37.716;-122.060;2023-03-01T05:02:20;99201.34;;;8.98;54.09
51053;BME280;37093;37.716;-122.060;2023-03-01T05:04:48;99198.63;;;8.86;54.29
51053;BME280;37093;37.716;-122.060;2023-03-01T05:07:17;99193.76;;;9.11;53.90
51053;BME280;37093;37.716;-122.060;2023-03-01T05:09:46;99187.97;;;9.65;53.45
51053;BME280;37093;37.716;-122.060;2023-03-01T05:12:14;99174.26;;;9.30;52.73
51053;BME280;37093;37.716;-122.060;2023-03-01T05:14:43;99168.21;;;9.68;53.10
51053;BME280;37093;37.716;-122.060;2023-03-01T05:17:11;99169.94;;;10.04;53.17
51053;BME280;37093;37.716;-122.060;2023-03-01T05:19:40;99171.23;;;10.11;51.98
51053;BME280;37093;37.716;-122.060;2023-03-01T05:22:08;99167.04;;;10.06;52.27
51053;BME280;37093;37.716;-122.060;2023-03-01T05:24:37;99165.53;;;10.03;51.48
51053;BME280;37093;37.716;-122.060;2023-03-01T05:27:06;99161.08;;;9.98;50.64
51053;BME280;37093;37.716;-122.060;2023-03-01T05:29:34;99165.66;;;10.59;50.98
51053;BME280;37093;37.716;-122.060;2023-03-01T05:32:03;99170.89;;;10.78;49.94
51053;BME280;37093;37.716;-122.060;2023-03-01T05:34:33;99170.42;;;10.67;50.09
51053;BME280;37093;37.716;-122.060;2023-03-01T05:37:02;99171.99;;;10.99;49.55
51053;BME280;37093;37.716;-122.060;2023-03-01T05:39:31;99172.15;;;10.80;49.16
51053;BME280;37093;37.716;-122.060;2023-03-01T05:42:00;99180.91;;;10.86;49.57
51053;BME280;37093;37.716;-122.060;2023-03-01T05:44:29;99179.31;;;10.87;49.30
51053;BME280;37093;37.716;-122.060;2023-03-01T05:46:57;99182.73;;;11.09;49.24
51053;BME280;37093;37.716;-122.060;2023-03-01T05:49:26;99184.66;;;11.38;49.13
51053;BME280;37093;37.716;-122.060;2023-03-01T05:51:55;99182.75;;;11.17;48.82
51053;BME280;37093;37.716;-122.060;2023-03-01T05:54:23;99179.86;;;10.92;47.65
51053;BME280;37093;37.716;-122.060;2023-03-01T05:56:52;99180.85;;;10.89;48.93
51053;BME280;37093;37.716;-122.060;2023-03-01T05:59:21;99177.61;;;10.62;49.07
51053;BME280;37093;37.716;-122.060;2023-03-01T06:01:49;99168.21;;;10.85;49.21
51053;BME280;37093;37.716;-122.060;2023-03-01T06:04:18;99164.83;;;10.94;49.11
51053;BME280;37093;37.716;-122.060;2023-03-01T06:06:46;99157.87;;;11.02;48.16
51053;BME280;37093;37.716;-122.060;2023-03-01T06:09:15;99153.19;;;11.24;49.06
51053;BME280;37093;37.716;-122.060;2023-03-01T06:11:44;99151.17;;;10.92;49.19
51053;BME280;37093;37.716;-122.060;2023-03-01T06:14:12;99147.72;;;10.97;48.69
51053;BME280;37093;37.716;-122.060;2023-03-01T06:16:40;99144.77;;;10.89;48.89
51053;BME280;37093;37.716;-122.060;2023-03-01T06:19:09;99138.52;;;10.86;48.79
51053;BME280;37093;37.716;-122.060;2023-03-01T06:21:38;99137.30;;;10.94;48.55
51053;BME280;37093;37.716;-122.060;2023-03-01T06:24:06;99127.24;;;11.29;48.75
51053;BME280;37093;37.716;-122.060;2023-03-01T06:26:35;99118.77;;;10.85;48.09
51053;BME280;37093;37.716;-122.060;2023-03-01T06:29:03;99117.26;;;11.12;48.90
51053;BME280;37093;37.716;-122.060;2023-03-01T06:31:32;99129.93;;;10.94;48.97
51053;BME280;37093;37.716;-122.060;2023-03-01T06:34:01;99134.06;;;10.95;49.54
51053;BME280;37093;37.716;-122.060;2023-03-01T06:36:29;99124.21;;;10.78;49.32
51053;BME280;37093;37.716;-122.060;2023-03-01T06:38:58;99126.32;;;10.68;49.40
51053;BME280;37093;37.716;-122.060;2023-03-01T06:41:27;99127.88;;;10.64;49.90
51053;BME280;37093;37.716;-122.060;2023-03-01T06:43:55;99125.19;;;10.60;49.33
51053;BME280;37093;37.716;-122.060;2023-03-01T06:46:24;99124.36;;;10.89;49.30
51053;BME280;37093;37.716;-122.060;2023-03-01T06:48:52;99119.78;;;10.47;49.66
51053;BME280;37093;37.716;-122.060;2023-03-01T06:51:21;99118.89;;;10.30;50.09
51053;BME280;37093;37.716;-122.060;2023-03-01T06:53:49;99114.72;;;10.42;50.09
51053;BME280;37093;37.716;-122.060;2023-03-01T06:56:18;99115.60;;;10.37;50.57
51053;BME280;37093;37.716;-122.060;2023-03-01T06:58:47;99114.49;;;10.21;50.79
51053;BME280;37093;37.716;-122.060;2023-03-01T07:01:15;99117.77;;;10.37;49.70
51053;BME280;37093;37.716;-122.060;2023-03-01T07:03:44;99117.51;;;10.26;49.97
51053;BME280;37093;37.716;-122.060;2023-03-01T07:06:12;99113.59;;;10.71;49.17
51053;BME280;37093;37.716;-122.060;2023-03-01T07:08:41;99116.11;;;10.71;49.12
51053;BME280;37093;37.716;-122.060;2023-03-01T07:11:10;99110.68;;;10.42;48.73
51053;BME280;37093;37.716;-122.060;2023-03-01T07:13:39;99110.84;;;10.27;48.92
51053;BME280;37093;37.716;-122.060;2023-03-01T07:16:08;99114.02;;;10.27;49.16
51053;BME280;37093;37.716;-122.060;2023-03-01T07:18:36;99116.04;;;10.16;49.07
51053;BME280;37093;37.716;-122.060;2023-03-01T07:21:06;99120.60;;;9.84;49.26
51053;BME280;37093;37.716;-122.060;2023-03-01T07:23:35;99117.53;;;9.76;49.87
51053;BME280;37093;37.716;-122.060;2023-03-01T07:26:04;99124.35;;;10.05;49.75
51053;BME280;37093;37.716;-122.060;2023-03-01T07:28:32;99121.29;;;10.66;48.83
51053;BME280;37093;37.716;-122.060;2023-03-01T07:31:02;99120.56;;;10.30;48.22
51053;BME280;37093;37.716;-122.060;2023-03-01T07:33:31;99123.56;;;10.19;48.63
51053;BME280;37093;37.716;-122.060;2023-03-01T07:36:01;99122.33;;;10.44;48.19
51053;BME280;37093;37.716;-122.060;2023-03-01T07:38:30;99128.44;;;10.50;47.96
51053;BME280;37093;37.716;-122.060;2023-03-01T07:41:00;99133.03;;;10.47;47.57
51053;BME280;37093;37.716;-122.060;2023-03-01T07:43:30;99135.64;;;10.47;47.69
51053;BME280;37093;37.716;-122.060;2023-03-01T07:45:59;99137.33;;;10.22;47.49
51053;BME280;37093;37.716;-122.060;2023-03-01T07:48:28;99141.91;;;10.40;47.74
51053;BME280;37093;37.716;-122.060;2023-03-01T07:50:59;99144.03;;;9.98;47.81
51053;BME280;37093;37.716;-122.060;2023-03-01T07:53:28;99141.36;;;10.24;48.21
51053;BME280;37093;37.716;-122.060;2023-03-01T07:56:07;99138.12;;;10.21;49.66
51053;BME280;37093;37.716;-122.060;2023-03-01T07:58:36;99134.09;;;9.83;49.37
51053;BME280;37093;37.716;-122.060;2023-03-01T08:01:15;99129.80;;;9.62;49.02
51053;BME280;37093;37.716;-122.060;2023-03-01T08:03:45;99126.22;;;8.88;48.16
51053;BME280;37093;37.716;-122.060;2023-03-01T08:06:16;99123.75;;;10.68;44.56
51053;BME280;37093;37.716;-122.060;2023-03-01T08:08:45;99121.71;;;10.29;44.85
51053;BME280;37093;37.716;-122.060;2023-03-01T08:11:15;99121.24;;;9.93;46.49
51053;BME280;37093;37.716;-122.060;2023-03-01T08:13:48;99108.41;;;10.16;46.71
51053;BME280;37093;37.716;-122.060;2023-03-01T08:16:16;99094.42;;;9.99;47.30
51053;BME280;37093;37.716;-122.060;2023-03-01T08:18:45;99101.09;;;9.28;48.74
51053;BME280;37093;37.716;-122.060;2023-03-01T08:21:16;99101.80;;;9.31;48.53
51053;BME280;37093;37.716;-122.060;2023-03-01T08:23:46;99102.96;;;8.97;48.44
51053;BME280;37093;37.716;-122.060;2023-03-01T08:26:17;99103.84;;;8.52;50.81
51053;BME280;37093;37.716;-122.060;2023-03-01T08:28:47;99105.00;;;8.26;51.00
51053;BME280;37093;37.716;-122.060;2023-03-01T08:31:19;99098.45;;;7.97;52.22
51053;BME280;37093;37.716;-122.060;2023-03-01T08:33:51;99097.14;;;8.40;51.04
51053;BME280;37093;37.716;-122.060;2023-03-01T08:36:20;99100.96;;;8.73;50.60
51053;BME280;37093;37.716;-122.060;2023-03-01T08:38:48;99100.85;;;9.29;49.40
51053;BME280;37093;37.716;-122.060;2023-03-01T08:41:17;99103.43;;;8.96;49.43
51053;BME280;37093;37.716;-122.060;2023-03-01T08:43:45;99101.72;;;8.79;50.40
51053;BME280;37093;37.716;-122.060;2023-03-01T08:46:14;99101.14;;;8.80;49.59
51053;BME280;37093;37.716;-122.060;2023-03-01T08:48:42;99102.79;;;8.27;50.94
51053;BME280;37093;37.716;-122.060;2023-03-01T08:51:13;99098.25;;;7.77;49.40
51053;BME280;37093;37.716;-122.060;2023-03-01T08:53:42;99102.45;;;7.96;49.50
51053;BME280;37093;37.716;-122.060;2023-03-01T08:56:12;99101.53;;;7.26;51.72
51053;BME280;37093;37.716;-122.060;2023-03-01T08:58:43;99106.29;;;7.52;51.34
51053;BME280;37093;37.716;-122.060;2023-03-01T09:01:13;99112.93;;;6.60;53.37
51053;BME280;37093;37.716;-122.060;2023-03-01T09:03:42;99106.44;;;6.83;53.34
51053;BME280;37093;37.716;-122.060;2023-03-01T09:06:12;99108.49;;;7.07;52.65
51053;BME280;37093;37.716;-122.060;2023-03-01T09:08:42;99107.46;;;7.42;52.00
51053;BME280;37093;37.716;-122.060;2023-03-01T09:11:13;99105.78;;;7.60;51.99
51053;BME280;37093;37.716;-122.060;2023-03-01T09:13:41;99104.95;;;7.39;51.46
51053;BME280;37093;37.716;-122.060;2023-03-01T09:16:11;99107.73;;;7.49;51.59
51053;BME280;37093;37.716;-122.060;2023-03-01T09:18:41;99110.42;;;7.81;49.91
51053;BME280;37093;37.716;-122.060;2023-03-01T09:21:11;99110.92;;;7.70;50.14
51053;BME280;37093;37.716;-122.060;2023-03-01T09:23:42;99114.49;;;7.79;50.26
51053;BME280;37093;37.716;-122.060;2023-03-01T09:26:13;99111.01;;;8.17;50.54
51053;BME280;37093;37.716;-122.060;2023-03-01T09:28:43;99105.68;;;7.08;51.40
51053;BME280;37093;37.716;-122.060;2023-03-01T09:31:11;99105.58;;;6.65;52.39
51053;BME280;37093;37.716;-122.060;2023-03-01T09:33:41;99107.90;;;6.55;52.69
51053;BME280;37093;37.716;-122.060;2023-03-01T09:36:13;99109.48;;;6.30;52.37
51053;BME280;37093;37.716;-122.060;2023-03-01T09:38:42;99110.71;;;5.94;53.58
51053;BME280;37093;37.716;-122.060;2023-03-01T09:41:16;99106.08;;;6.03;54.49
51053;BME280;37093;37.716;-122.060;2023-03-01T09:43:52;99104.68;;;6.00;53.42
51053;BME280;37093;37.716;-122.060;2023-03-01T09:46:24;99109.19;;;6.55;51.57
51053;BME280;37093;37.716;-122.060;2023-03-01T09:48:59;99112.39;;;6.37;52.01
51053;BME280;37093;37.716;-122.060;2023-03-01T09:51:32;99114.45;;;6.19;52.65
51053;BME280;37093;37.716;-122.060;2023-03-01T09:54:03;99113.28;;;6.76;51.82
51053;BME280;37093;37.716;-122.060;2023-03-01T09:56:36;99110.19;;;6.79;50.63
51053;BME280;37093;37.716;-122.060;2023-03-01T09:59:18;99108.32;;;6.38;51.69
51053;BME280;37093;37.716;-122.060;2023-03-01T10:01:55;99109.77;;;6.38;52.01
51053;BME280;37093;37.716;-122.060;2023-03-01T10:04:35;99111.42;;;5.59;53.06
51053;BME280;37093;37.716;-122.060;2023-03-01T10:07:22;99116.50;;;5.55;53.43
51053;BME280;37093;37.716;-122.060;2023-03-01T10:09:53;99112.72;;;5.92;52.26
51053;BME280;37093;37.716;-122.060;2023-03-01T10:12:25;99116.22;;;5.81;52.44
51053;BME280;37093;37.716;-122.060;2023-03-01T10:15:02;99118.46;;;5.89;50.88
51053;BME280;37093;37.716;-122.060;2023-03-01T10:17:35;99124.34;;;5.90;53.20
51053;BME280;37093;37.716;-122.060;2023-03-01T10:20:19;99123.95;;;5.03;54.65
51053;BME280;37093;37.716;-122.060;2023-03-01T10:22:48;99121.14;;;5.67;54.12
51053;BME280;37093;37.716;-122.060;2023-03-01T10:25:25;99120.88;;;5.75;52.36
51053;BME280;37093;37.716;-122.060;2023-03-01T10:28:05;99118.83;;;4.90;53.83
51053;BME280;37093;37.716;-122.060;2023-03-01T10:30:39;99114.54;;;5.55;54.49
51053;BME280;37093;37.716;-122.060;2023-03-01T10:33:16;99114.67;;;6.02;52.53
51053;BME280;37093;37.716;-122.060;2023-03-01T10:35:45;99116.02;;;5.84;52.38
51053;BME280;37093;37.716;-122.060;2023-03-01T10:38:15;99108.84;;;5.79;52.91
51053;BME280;37093;37.716;-122.060;2023-03-01T10:40:55;99104.65;;;5.79;53.95
51053;BME280;37093;37.716;-122.060;2023-03-01T10:43:24;99101.17;;;5.16;55.31
51053;BME280;37093;37.716;-122.060;2023-03-01T10:45:53;99098.99;;;5.62;55.24
51053;BME280;37093;37.716;-122.060;2023-03-01T10:48:23;99100.70;;;6.03;52.41
51053;BME280;37093;37.716;-122.060;2023-03-01T10:51:05;99105.81;;;6.27;52.08
51053;BME280;37093;37.716;-122.060;2023-03-01T10:53:35;99104.96;;;6.73;50.92
51053;BME280;37093;37.716;-122.060;2023-03-01T10:56:07;99109.40;;;5.94;53.26
51053;BME280;37093;37.716;-122.060;2023-03-01T10:58:36;99105.79;;;6.03;51.81
51053;BME280;37093;37.716;-122.060;2023-03-01T11:01:24;99098.43;;;6.29;51.37
51053;BME280;37093;37.716;-122.060;2023-03-01T11:04:11;99094.54;;;6.16;52.23
51053;BME280;37093;37.716;-122.060;2023-03-01T11:06:41;99092.21;;;6.26;51.45
51053;BME280;37093;37.716;-122.060;2023-03-01T11:09:20;99092.76;;;6.47;51.05
51053;BME280;37093;37.716;-122.060;2023-03-01T11:11:53;99084.97;;;6.54;50.18
51053;BME280;37093;37.716;-122.060;2023-03-01T11:14:23;99077.07;;;6.56;50.15
51053;BME280;37093;37.716;-122.060;2023-03-01T11:17:00;99079.80;;;6.99;49.49
51053;BME280;37093;37.716;-122.060;2023-03-01T11:19:30;99087.72;;;6.85;47.84
51053;BME280;37093;37.716;-122.060;2023-03-01T11:22:03;99087.39;;;7.21;47.73
51053;BME280;37093;37.716;-122.060;2023-03-01T11:24:38;99084.69;;;7.06;48.64
51053;BME280;37093;37.716;-122.060;2023-03-01T11:27:16;99078.87;;;7.23;47.11
51053;BME280;37093;37.716;-122.060;2023-03-01T11:29:48;99075.05;;;7.52;47.98
51053;BME280;37093;37.716;-122.060;2023-03-01T11:32:21;99073.61;;;7.01;47.03
51053;BME280;37093;37.716;-122.060;2023-03-01T11:34:56;99074.76;;;7.52;46.59
51053;BME280;37093;37.716;-122.060;2023-03-01T11:37:34;99078.14;;;7.38;46.90
51053;BME280;37093;37.716;-122.060;2023-03-01T11:40:13;99077.81;;;7.63;46.41
51053;BME280;37093;37.716;-122.060;2023-03-01T11:42:52;99074.62;;;7.33;46.38
51053;BME280;37093;37.716;-122.060;2023-03-01T11:45:24;99078.29;;;7.17;47.76
51053;BME280;37093;37.716;-122.060;2023-03-01T11:48:05;99080.60;;;7.43;48.13
51053;BME280;37093;37.716;-122.060;2023-03-01T11:50:41;99076.58;;;7.32;47.51
51053;BME280;37093;37.716;-122.060;2023-03-01T11:53:27;99087.69;;;7.45;46.56
51053;BME280;37093;37.716;-122.060;2023-03-01T11:56:05;99095.39;;;7.02;45.75
51053;BME280;37093;37.716;-122.060;2023-03-01T11:58:49;99094.09;;;7.28;46.29
51053;BME280;37093;37.716;-122.060;2023-03-01T12:01:33;99092.67;;;7.40;45.34
51053;BME280;37093;37.716;-122.060;2023-03-01T12:04:22;99088.52;;;7.15;46.20
51053;BME280;37093;37.716;-122.060;2023-03-01T12:07:00;99095.45;;;7.08;45.50
51053;BME280;37093;37.716;-122.060;2023-03-01T12:09:44;99099.85;;;7.11;46.07
51053;BME280;37093;37.716;-122.060;2023-03-01T12:12:28;99106.13;;;7.15;45.46
51053;BME280;37093;37.716;-122.060;2023-03-01T12:15:23;99109.63;;;7.38;45.71
51053;BME280;37093;37.716;-122.060;2023-03-01T12:18:09;99120.06;;;7.22;45.60
51053;BME280;37093;37.716;-122.060;2023-03-01T12:20:49;99129.87;;;6.91;45.57
51053;BME280;37093;37.716;-122.060;2023-03-01T12:23:45;99138.78;;;7.15;45.70
51053;BME280;37093;37.716;-122.060;2023-03-01T12:26:23;99140.50;;;7.71;46.46
51053;BME280;37093;37.716;-122.060;2023-03-01T12:29:15;99142.91;;;7.30;45.65
51053;BME280;37093;37.716;-122.060;2023-03-01T12:32:05;99143.12;;;7.59;45.28
51053;BME280;37093;37.716;-122.060;2023-03-01T12:34:52;99146.67;;;7.31;45.89
51053;BME280;37093;37.716;-122.060;2023-03-01T12:37:33;99156.69;;;7.43;45.25
51053;BME280;37093;37.716;-122.060;2023-03-01T12:40:26;99159.81;;;7.89;45.26
51053;BME280;37093;37.716;-122.060;2023-03-01T12:43:06;99157.62;;;7.40;45.47
51053;BME280;37093;37.716;-122.060;2023-03-01T12:45:47;99162.00;;;7.16;45.33
51053;BME280;37093;37.716;-122.060;2023-03-01T12:48:28;99172.26;;;7.59;45.17
51053;BME280;37093;37.716;-122.060;2023-03-01T12:51:03;99174.17;;;7.25;45.37
51053;BME280;37093;37.716;-122.060;2023-03-01T12:53:38;99179.78;;;7.21;45.30
51053;BME280;37093;37.716;-122.060;2023-03-01T12:56:09;99191.02;;;7.20;45.12
51053;BME280;37093;37.716;-122.060;2023-03-01T12:58:45;99194.87;;;7.05;44.69